createdAt,value
2019-04-26T00:02:18.527Z,2.90
2019-04-26T00:04:22.530Z,2.50
2019-04-26T00:06:26.474Z,2.57
2019-04-26T00:08:30.544Z,2.67
2019-04-26T00:10:38.834Z,3.20
2019-04-26T00:12:53.449Z,2.87
2019-04-26T00:15:16.380Z,2.77
2019-04-26T00:17:31.356Z,2.70
2019-04-26T00:19:35.369Z,2.70
2019-04-26T00:21:39.302Z,2.67
2019-04-26T00:23:43.361Z,2.63
2019-04-26T00:25:47.317Z,2.50
2019-04-26T00:27:51.258Z,2.63
2019-04-26T00:29:54.935Z,3.00
2019-04-26T00:31:58.949Z,2.73
2019-04-26T00:34:02.652Z,2.70
2019-04-26T00:36:06.358Z,3.03
2019-04-26T00:38:10.004Z,2.27
2019-04-26T00:40:14.343Z,2.70
2019-04-26T00:42:18.726Z,2.20
2019-04-26T00:44:22.842Z,2.60
2019-04-26T00:46:29.326Z,2.80
2019-04-26T00:48:33.744Z,2.60
2019-04-26T00:50:37.668Z,2.80
2019-04-26T00:52:42.566Z,2.43
2019-04-26T00:54:46.921Z,2.60
2019-04-26T00:56:51.071Z,2.27
2019-04-26T00:58:55.567Z,2.70
2019-04-26T01:01:00.197Z,2.50
2019-04-26T01:03:04.102Z,2.23
2019-04-26T01:05:08.077Z,2.40
2019-04-26T01:07:12.057Z,2.33
2019-04-26T01:09:16.174Z,2.40
2019-04-26T01:11:21.749Z,2.67
2019-04-26T01:13:26.170Z,2.93
2019-04-26T01:15:29.974Z,3.13
2019-04-26T01:17:33.535Z,2.50
2019-04-26T01:19:39.283Z,2.40
2019-04-26T01:21:45.962Z,2.67
2019-04-26T01:23:51.480Z,2.70
2019-04-26T01:26:01.008Z,3.07
2019-04-26T01:28:07.346Z,3.20
2019-04-26T01:30:11.707Z,2.77
2019-04-26T01:32:16.420Z,3.27
2019-04-26T01:34:20.378Z,3.20
2019-04-26T01:36:26.494Z,3.00
2019-04-26T01:38:30.287Z,3.03
2019-04-26T01:40:35.832Z,2.90
2019-04-26T01:43:00.579Z,3.20
2019-04-26T01:45:20.302Z,3.87
2019-04-26T01:47:24.626Z,2.90
2019-04-26T01:49:28.795Z,3.53
2019-04-26T01:51:41.438Z,3.50
2019-04-26T01:53:48.094Z,3.00
2019-04-26T01:55:51.847Z,3.37
2019-04-26T01:57:56.393Z,3.47
2019-04-26T02:00:04.679Z,3.60
2019-04-26T02:02:22.770Z,3.27
2019-04-26T02:04:29.864Z,3.50
2019-04-26T02:06:35.222Z,3.30
2019-04-26T02:08:39.006Z,3.30
2019-04-26T02:10:42.776Z,3.40
2019-04-26T02:12:48.182Z,3.03
2019-04-26T02:14:51.892Z,2.67
2019-04-26T02:16:55.628Z,3.30
2019-04-26T02:18:59.357Z,3.20
2019-04-26T02:21:16.362Z,3.20
2019-04-26T02:23:21.763Z,3.00
2019-04-26T02:25:26.014Z,3.33
2019-04-26T02:27:31.064Z,3.20
2019-04-26T02:29:35.012Z,3.50
2019-04-26T02:31:40.272Z,3.90
2019-04-26T02:33:44.125Z,3.80
2019-04-26T02:35:47.849Z,3.70
2019-04-26T02:37:51.727Z,3.60
2019-04-26T02:39:55.931Z,4.00
2019-04-26T02:42:02.643Z,3.97
2019-04-26T02:44:09.405Z,3.70
2019-04-26T02:46:36.640Z,4.00
2019-04-26T02:48:57.149Z,4.00
2019-04-26T02:51:09.500Z,4.23
2019-04-26T02:53:38.690Z,4.07
2019-04-26T02:56:20.529Z,4.10
2019-04-26T02:58:29.432Z,4.40
2019-04-26T03:00:33.941Z,4.10
2019-04-26T03:02:40.216Z,4.70
2019-04-26T03:04:45.637Z,4.23
2019-04-26T03:07:03.097Z,4.23
2019-04-26T03:08:57.835Z,5.00
2019-04-26T03:11:04.582Z,4.30
2019-04-26T03:13:13.312Z,4.40
2019-04-26T03:15:35.308Z,4.30
2019-04-26T03:17:47.002Z,5.17
2019-04-26T03:20:16.654Z,4.53
2019-04-26T03:22:23.411Z,5.30
2019-04-26T03:24:34.534Z,5.90
2019-04-26T03:26:50.299Z,6.00
2019-04-26T03:29:06.001Z,5.90
2019-04-26T03:31:18.773Z,6.00
2019-04-26T03:33:39.844Z,5.63
2019-04-26T03:36:02.642Z,6.40
2019-04-26T03:38:55.293Z,6.87
2019-04-26T03:41:09.455Z,6.23
2019-04-26T03:43:34.983Z,6.50
2019-04-26T03:45:45.474Z,7.70
2019-04-26T03:48:11.499Z,6.03
2019-04-26T03:50:23.870Z,6.60
2019-04-26T03:53:04.053Z,6.20
2019-04-26T03:55:34.592Z,6.00
2019-04-26T03:58:04.816Z,6.60
2019-04-26T04:00:29.216Z,6.70
2019-04-26T04:02:58.517Z,6.97
2019-04-26T04:05:06.882Z,7.47
2019-04-26T04:07:13.551Z,7.47
2019-04-26T04:09:18.114Z,6.17
2019-04-26T04:11:25.028Z,6.83
2019-04-26T04:13:51.194Z,6.80
2019-04-26T04:15:54.065Z,7.17
2019-04-26T04:18:07.757Z,7.03
2019-04-26T04:20:27.799Z,7.77
2019-04-26T04:22:37.890Z,7.53
2019-04-26T04:25:02.096Z,6.70
2019-04-26T04:27:14.771Z,6.83
2019-04-26T04:29:46.282Z,8.67
2019-04-26T04:31:48.123Z,7.03
2019-04-26T04:34:23.369Z,7.10
2019-04-26T04:36:30.056Z,7.27
2019-04-26T04:38:53.342Z,7.37
2019-04-26T04:41:25.233Z,7.50
2019-04-26T04:43:44.377Z,8.10
2019-04-26T04:45:58.641Z,8.20
2019-04-26T04:48:30.897Z,6.23
2019-04-26T04:50:43.149Z,7.70
2019-04-26T04:53:02.057Z,7.47
2019-04-26T04:55:14.447Z,8.00
2019-04-26T04:57:38.048Z,7.07
2019-04-26T04:59:48.137Z,7.80
2019-04-26T05:02:23.388Z,8.33
2019-04-26T05:04:32.727Z,7.27
2019-04-26T05:07:13.148Z,7.77
2019-04-26T05:09:28.601Z,7.53
2019-04-26T05:11:47.685Z,7.37
2019-04-26T05:13:56.966Z,6.63
2019-04-26T05:16:23.342Z,6.50
2019-04-26T05:18:46.600Z,8.10
2019-04-26T05:21:19.077Z,6.27
2019-04-26T05:23:40.211Z,6.30
2019-04-26T05:26:08.078Z,7.53
2019-04-26T05:28:27.447Z,6.47
2019-04-26T05:30:41.694Z,6.50
2019-04-26T05:32:48.683Z,8.30
2019-04-26T05:35:07.320Z,6.67
2019-04-26T05:37:46.723Z,6.43
2019-04-26T05:40:00.116Z,6.27
2019-04-26T05:42:14.714Z,5.90
2019-04-26T05:44:31.713Z,5.63
2019-04-26T05:46:40.055Z,6.07
2019-04-26T05:49:14.348Z,6.20
2019-04-26T05:51:57.803Z,5.93
2019-04-26T05:54:28.354Z,6.60
2019-04-26T05:57:02.700Z,5.80
2019-04-26T05:59:23.978Z,6.33
2019-04-26T06:01:50.521Z,5.67
2019-04-26T06:04:18.227Z,6.40
2019-04-26T06:06:35.371Z,6.43
2019-04-26T06:09:01.753Z,6.70
2019-04-26T06:11:10.059Z,6.67
2019-04-26T06:13:49.971Z,7.00
2019-04-26T06:16:35.908Z,6.60
2019-04-26T06:19:02.055Z,6.90
2019-04-26T06:21:23.625Z,7.20
2019-04-26T06:23:42.236Z,6.80
2019-04-26T06:26:34.600Z,7.00
2019-04-26T06:29:07.378Z,6.70
2019-04-26T06:31:16.721Z,6.50
2019-04-26T06:33:35.328Z,7.63
2019-04-26T06:35:42.139Z,7.03
2019-04-26T06:38:08.305Z,6.87
2019-04-26T06:40:15.097Z,6.60
2019-04-26T06:42:55.998Z,7.90
2019-04-26T06:45:07.305Z,7.67
2019-04-26T06:47:21.286Z,7.37
2019-04-26T06:49:29.581Z,7.80
2019-04-26T06:51:51.404Z,7.70
2019-04-26T06:54:01.278Z,7.60
2019-04-26T06:56:37.944Z,7.23
2019-04-26T06:59:08.817Z,7.40
2019-04-26T07:01:30.283Z,7.60
2019-04-26T07:04:02.670Z,7.80
2019-04-26T07:06:09.321Z,6.60
2019-04-26T07:08:35.108Z,7.50
2019-04-26T07:11:13.028Z,8.13
2019-04-26T07:13:43.655Z,7.80
2019-04-26T07:16:01.251Z,8.33
2019-04-26T07:18:33.946Z,8.07
2019-04-26T07:20:54.303Z,7.80
2019-04-26T07:23:38.646Z,6.67
2019-04-26T07:26:06.593Z,7.40
2019-04-26T07:28:31.190Z,7.43
2019-04-26T07:30:40.618Z,7.47
2019-04-26T07:32:50.091Z,7.33
2019-04-26T07:35:15.211Z,7.17
2019-04-26T07:37:47.740Z,6.10
2019-04-26T07:40:07.646Z,7.50
2019-04-26T07:42:15.959Z,7.27
2019-04-26T07:44:30.145Z,7.40
2019-04-26T07:46:53.140Z,6.40
2019-04-26T07:49:25.663Z,7.57
2019-04-26T07:51:50.841Z,6.43
2019-04-26T07:54:00.190Z,7.27
2019-04-26T07:56:07.102Z,6.67
2019-04-26T07:58:39.662Z,6.30
2019-04-26T08:01:03.991Z,6.57
2019-04-26T08:03:29.349Z,6.93
2019-04-26T08:05:49.843Z,6.77
2019-04-26T08:07:58.557Z,8.33
2019-04-26T08:10:12.304Z,7.87
2019-04-26T08:12:19.309Z,6.00
2019-04-26T08:14:26.334Z,7.30
2019-04-26T08:16:51.064Z,7.10
2019-04-26T08:18:59.398Z,6.30
2019-04-26T08:21:14.409Z,7.83
2019-04-26T08:23:37.909Z,6.60
2019-04-26T08:25:27.782Z,6.80
2019-04-26T08:27:34.851Z,7.10
2019-04-26T08:29:41.043Z,7.27
2019-04-26T08:31:47.899Z,7.30
2019-04-26T08:33:55.428Z,6.60
2019-04-26T08:36:02.349Z,7.27
2019-04-26T08:38:16.367Z,7.50
2019-04-26T08:40:20.701Z,7.33
2019-04-26T08:42:24.576Z,7.50
2019-04-26T08:44:34.492Z,6.93
2019-04-26T08:46:41.117Z,7.07
2019-04-26T08:49:06.163Z,6.87
2019-04-26T08:51:10.814Z,7.30
2019-04-26T08:53:17.045Z,7.43
2019-04-26T08:55:21.599Z,7.50
2019-04-26T08:57:28.358Z,6.70
2019-04-26T08:59:37.585Z,6.37
2019-04-26T09:02:02.340Z,6.60
2019-04-26T09:04:10.522Z,7.37
2019-04-26T09:06:21.205Z,7.20
2019-04-26T09:08:27.902Z,7.60
2019-04-26T09:10:34.318Z,6.07
2019-04-26T09:12:41.124Z,6.57
2019-04-26T09:14:49.051Z,6.63
2019-04-26T09:16:52.751Z,7.30
2019-04-26T09:18:59.572Z,8.00
2019-04-26T09:21:01.878Z,7.37
2019-04-26T09:23:23.646Z,8.20
2019-04-26T09:25:30.304Z,8.50
2019-04-26T09:27:39.210Z,7.60
2019-04-26T09:29:47.176Z,8.00
2019-04-26T09:31:54.472Z,8.07
2019-04-26T09:34:01.192Z,7.83
2019-04-26T09:36:06.527Z,9.00
2019-04-26T09:38:12.069Z,8.50
2019-04-26T09:40:21.547Z,7.90
2019-04-26T09:42:25.108Z,8.13
2019-04-26T09:44:37.673Z,9.33
2019-04-26T09:46:48.394Z,8.07
2019-04-26T09:48:55.310Z,8.67
2019-04-26T09:51:00.547Z,8.47
2019-04-26T09:53:04.443Z,8.23
2019-04-26T09:55:08.332Z,6.50
2019-04-26T09:57:12.059Z,7.23
2019-04-26T09:59:15.640Z,8.77
2019-04-26T10:01:19.627Z,7.70
2019-04-26T10:03:24.727Z,7.23
2019-04-26T10:05:28.371Z,9.13
2019-04-26T10:07:33.331Z,7.20
2019-04-26T10:09:37.564Z,7.30
2019-04-26T10:11:43.575Z,6.10
2019-04-26T10:13:58.331Z,6.30
2019-04-26T10:16:04.314Z,6.23
2019-04-26T10:18:08.341Z,6.33
2019-04-26T10:20:13.656Z,7.20
2019-04-26T10:22:17.401Z,6.30
2019-04-26T10:24:21.224Z,5.27
2019-04-26T10:26:28.048Z,5.80
2019-04-26T10:28:30.360Z,6.00
2019-04-26T10:30:34.068Z,6.43
2019-04-26T10:32:37.860Z,5.77
2019-04-26T10:34:42.786Z,5.67
2019-04-26T10:36:46.933Z,5.93
2019-04-26T10:38:50.526Z,6.67
2019-04-26T10:40:54.251Z,6.17
2019-04-26T10:42:57.980Z,5.73
2019-04-26T10:45:01.645Z,6.03
2019-04-26T10:47:07.439Z,6.63
2019-04-26T10:49:44.198Z,6.87
2019-04-26T10:51:48.002Z,6.40
2019-04-26T10:53:54.268Z,5.87
2019-04-26T10:56:02.363Z,6.37
2019-04-26T10:58:10.509Z,6.53
2019-04-26T11:00:20.573Z,6.40
2019-04-26T11:02:25.658Z,7.00
2019-04-26T11:04:29.575Z,5.73
2019-04-26T11:06:33.682Z,7.30
2019-04-26T11:08:37.566Z,6.30
2019-04-26T11:10:48.561Z,6.70
2019-04-26T11:12:46.765Z,7.57
2019-04-26T11:14:53.204Z,7.60
2019-04-26T11:16:55.923Z,7.07
2019-04-26T11:19:01.260Z,6.47
2019-04-26T11:21:05.507Z,7.50
2019-04-26T11:23:11.795Z,7.50
2019-04-26T11:25:14.926Z,7.90
2019-04-26T11:27:18.567Z,7.67
2019-04-26T11:29:25.012Z,7.30
2019-04-26T11:31:29.012Z,7.40
2019-04-26T11:33:44.239Z,6.97
2019-04-26T11:35:38.209Z,6.40
2019-04-26T11:37:42.031Z,5.70
2019-04-26T11:39:45.817Z,5.70
2019-04-26T11:41:49.447Z,6.47
2019-04-26T11:43:54.495Z,5.83
2019-04-26T11:46:04.292Z,5.97
2019-04-26T11:48:03.616Z,5.70
2019-04-26T11:50:12.348Z,5.63
2019-04-26T11:52:14.205Z,5.80
2019-04-26T11:54:20.808Z,5.20
2019-04-26T11:56:23.067Z,5.27
2019-04-26T11:58:26.870Z,6.10
2019-04-26T12:00:34.966Z,5.97
2019-04-26T12:02:38.708Z,5.83
2019-04-26T12:04:59.715Z,5.80
2019-04-26T12:07:05.201Z,6.33
2019-04-26T12:09:16.348Z,5.93
2019-04-26T12:11:26.264Z,6.07
2019-04-26T12:13:26.605Z,5.23
2019-04-26T12:15:30.781Z,5.17
2019-04-26T12:17:35.189Z,5.03
2019-04-26T12:19:39.892Z,5.00
2019-04-26T12:21:43.632Z,4.87
2019-04-26T12:23:47.236Z,6.03
2019-04-26T12:25:50.902Z,5.77
2019-04-26T12:27:54.625Z,6.87
2019-04-26T12:29:58.317Z,5.50
2019-04-26T12:32:01.990Z,5.30
2019-04-26T12:34:05.689Z,5.10
2019-04-26T12:36:13.276Z,5.67
2019-04-26T12:38:15.317Z,5.90
2019-04-26T12:40:19.509Z,4.97
2019-04-26T12:42:23.221Z,5.47
2019-04-26T12:44:32.194Z,4.90
2019-04-26T12:46:41.322Z,6.17
2019-04-26T12:48:45.956Z,5.77
2019-04-26T12:50:50.553Z,6.30
2019-04-26T12:52:55.833Z,5.83
2019-04-26T12:54:59.752Z,5.80
2019-04-26T12:57:05.858Z,5.67
2019-04-26T12:59:08.772Z,5.93
2019-04-26T13:01:13.753Z,6.67
2019-04-26T13:03:20.376Z,7.00
2019-04-26T13:05:24.351Z,5.80
2019-04-26T13:07:27.954Z,5.40
2019-04-26T13:09:33.288Z,5.90
2019-04-26T13:11:49.013Z,5.57
2019-04-26T13:13:57.152Z,4.63
2019-04-26T13:16:11.503Z,5.30
2019-04-26T13:18:15.095Z,5.03
2019-04-26T13:20:18.726Z,5.60
2019-04-26T13:22:22.537Z,5.53
2019-04-26T13:24:26.247Z,4.40
2019-04-26T13:26:30.341Z,4.60
2019-04-26T13:28:36.884Z,4.57
2019-04-26T13:30:43.713Z,4.30
2019-04-26T13:32:49.311Z,4.53
2019-04-26T13:34:51.321Z,4.40
2019-04-26T13:36:55.418Z,3.93
2019-04-26T13:38:59.055Z,4.20
2019-04-26T13:41:04.622Z,3.93
2019-04-26T13:43:08.619Z,4.23
2019-04-26T13:45:14.340Z,3.97
2019-04-26T13:47:19.558Z,3.67
2019-04-26T13:49:24.875Z,3.50
2019-04-26T13:51:33.128Z,3.80
2019-04-26T13:53:36.798Z,3.50
2019-04-26T13:55:40.582Z,3.50
2019-04-26T13:57:45.998Z,3.50
2019-04-26T13:59:49.510Z,3.50
2019-04-26T14:01:53.198Z,2.87
2019-04-26T14:03:56.791Z,2.93
2019-04-26T14:06:00.605Z,3.37
2019-04-26T14:08:04.608Z,3.23
2019-04-26T14:10:08.408Z,3.63
2019-04-26T14:12:18.566Z,3.03
2019-04-26T14:14:17.774Z,2.60
2019-04-26T14:16:22.833Z,2.47
2019-04-26T14:18:26.639Z,3.30
2019-04-26T14:20:30.588Z,2.93
2019-04-26T14:22:37.009Z,2.20
2019-04-26T14:24:56.906Z,2.63
2019-04-26T14:27:02.358Z,3.03
2019-04-26T14:29:06.200Z,4.13
2019-04-26T14:31:12.299Z,3.47
2019-04-26T14:33:15.495Z,3.23
2019-04-26T14:35:19.098Z,2.90
2019-04-26T14:37:22.802Z,3.50
2019-04-26T14:39:38.245Z,3.50
2019-04-26T14:41:32.376Z,3.80
2019-04-26T14:43:40.932Z,3.73
2019-04-26T14:45:41.505Z,4.50
2019-04-26T14:47:47.520Z,3.47
2019-04-26T14:49:53.294Z,4.70
2019-04-26T14:51:58.520Z,3.60
2019-04-26T14:54:02.171Z,4.00
2019-04-26T14:56:06.104Z,3.50
2019-04-26T14:58:09.898Z,3.67
2019-04-26T15:00:16.843Z,3.03
2019-04-26T15:02:43.271Z,4.13
2019-04-26T15:05:02.988Z,2.70
2019-04-26T15:07:06.632Z,2.90
2019-04-26T15:09:18.063Z,2.67
2019-04-26T15:11:15.914Z,2.43
2019-04-26T15:13:20.860Z,2.83
2019-04-26T15:15:30.640Z,2.37
2019-04-26T15:17:32.203Z,2.90
2019-04-26T15:19:35.669Z,2.23
2019-04-26T15:21:39.228Z,2.67
2019-04-26T15:23:42.973Z,2.43
2019-04-26T15:25:48.494Z,3.00
2019-04-26T15:27:52.503Z,2.67
2019-04-26T15:29:57.199Z,2.27
2019-04-26T15:32:03.188Z,2.60
2019-04-26T15:34:07.048Z,2.67
2019-04-26T15:36:14.383Z,2.37
2019-04-26T15:38:16.221Z,2.10
2019-04-26T15:40:38.112Z,2.90
2019-04-26T15:42:43.564Z,2.03
2019-04-26T15:44:48.849Z,2.43
2019-04-26T15:46:57.101Z,2.27
2019-04-26T15:49:04.689Z,2.67
2019-04-26T15:51:07.818Z,2.27
2019-04-26T15:53:14.576Z,2.03
2019-04-26T15:55:16.767Z,2.10
2019-04-26T15:57:20.361Z,2.30
2019-04-26T15:59:25.370Z,2.60
2019-04-26T16:01:29.136Z,2.10
2019-04-26T16:03:32.908Z,3.00
2019-04-26T16:05:36.579Z,2.03
2019-04-26T16:07:40.163Z,2.10
2019-04-26T16:09:43.911Z,2.07
2019-04-26T16:11:49.671Z,2.40
2019-04-26T16:13:55.505Z,2.20
2019-04-26T16:15:58.377Z,1.90
2019-04-26T16:18:04.131Z,2.20
2019-04-26T16:20:08.158Z,2.30
2019-04-26T16:22:11.895Z,2.23
2019-04-26T16:24:15.604Z,1.60
2019-04-26T16:26:19.319Z,1.90
2019-04-26T16:28:24.718Z,2.00
2019-04-26T16:30:37.299Z,2.20
2019-04-26T16:32:43.259Z,2.43
2019-04-26T16:34:48.865Z,2.17
2019-04-26T16:36:52.709Z,2.07
2019-04-26T16:38:57.894Z,2.53
2019-04-26T16:41:03.290Z,1.80
2019-04-26T16:43:07.163Z,2.13
2019-04-26T16:45:12.474Z,2.23
2019-04-26T16:47:16.123Z,3.10
2019-04-26T16:49:19.823Z,2.57
2019-04-26T16:51:23.442Z,2.50
2019-04-26T16:53:43.828Z,1.90
2019-04-26T16:55:37.969Z,2.20
2019-04-26T16:57:43.852Z,2.60
2019-04-26T16:59:47.669Z,2.30
2019-04-26T17:01:48.413Z,2.43
2019-04-26T17:03:53.511Z,2.30
2019-04-26T17:06:05.244Z,2.23
2019-04-26T17:08:05.139Z,2.20
2019-04-26T17:10:08.049Z,2.60
2019-04-26T17:12:15.012Z,2.40
2019-04-26T17:14:17.010Z,2.17
2019-04-26T17:16:22.434Z,2.90
2019-04-26T17:18:27.030Z,2.17
2019-04-26T17:20:32.199Z,2.17
2019-04-26T17:22:59.413Z,2.00
2019-04-26T17:25:02.547Z,1.83
2019-04-26T17:27:09.717Z,2.30
2019-04-26T17:29:13.236Z,1.70
2019-04-26T17:31:17.061Z,1.77
2019-04-26T17:33:22.677Z,2.00
2019-04-26T17:35:26.195Z,4.13
2019-04-26T17:37:36.842Z,3.77
2019-04-26T17:39:40.872Z,4.43
2019-04-26T17:41:50.582Z,4.33
2019-04-26T17:43:55.978Z,3.17
2019-04-26T17:45:55.622Z,3.27
2019-04-26T17:47:59.207Z,2.40
2019-04-26T17:50:06.217Z,4.30
2019-04-26T17:52:08.514Z,3.17
2019-04-26T17:54:40.833Z,3.70
2019-04-26T17:56:17.647Z,2.33
2019-04-26T17:58:27.523Z,1.60
2019-04-26T18:00:28.869Z,2.10
2019-04-26T18:02:42.147Z,3.03
2019-04-26T18:04:40.621Z,2.13
2019-04-26T18:06:45.383Z,2.10
2019-04-26T18:08:54.616Z,2.20
2019-04-26T18:10:53.895Z,2.13
2019-04-26T18:12:57.626Z,2.00
2019-04-26T18:15:06.246Z,1.90
2019-04-26T18:17:08.301Z,2.27
2019-04-26T18:19:13.690Z,2.50
2019-04-26T18:21:35.254Z,2.03
2019-04-26T18:23:39.040Z,2.30
2019-04-26T18:25:45.159Z,1.80
2019-04-26T18:27:48.103Z,3.23
2019-04-26T18:29:53.191Z,2.03
2019-04-26T18:31:59.111Z,2.10
2019-04-26T18:34:04.176Z,1.70
2019-04-26T18:36:08.063Z,1.97
2019-04-26T18:38:12.662Z,2.43
2019-04-26T18:40:17.092Z,2.40
2019-04-26T18:42:20.771Z,3.03
2019-04-26T18:44:35.846Z,2.70
2019-04-26T18:46:35.849Z,3.40
2019-04-26T18:48:42.031Z,3.03
2019-04-26T18:50:46.042Z,2.07
2019-04-26T18:52:52.666Z,2.50
2019-04-26T18:55:00.572Z,1.87
2019-04-26T18:57:04.312Z,2.37
2019-04-26T18:59:11.841Z,2.33
2019-04-26T19:01:14.888Z,2.10
2019-04-26T19:03:18.483Z,2.20
2019-04-26T19:05:27.025Z,2.10
2019-04-26T19:07:32.476Z,2.50
2019-04-26T19:09:55.959Z,2.30
2019-04-26T19:11:42.131Z,2.57
2019-04-26T19:13:56.330Z,3.03
2019-04-26T19:16:03.552Z,2.60
2019-04-26T19:18:23.791Z,2.37
2019-04-26T19:20:29.076Z,2.30
2019-04-26T19:22:34.597Z,2.87
2019-04-26T19:24:38.704Z,2.40
2019-04-26T19:26:44.190Z,3.67
2019-04-26T19:28:47.887Z,4.00
2019-04-26T19:30:53.218Z,2.17
2019-04-26T19:32:57.707Z,2.50
2019-04-26T19:35:07.091Z,2.17
2019-04-26T19:37:10.391Z,2.40
2019-04-26T19:39:14.968Z,6.80
2019-04-26T19:41:21.526Z,5.07
2019-04-26T19:43:31.025Z,3.80
2019-04-26T19:45:34.598Z,2.30
2019-04-26T19:47:48.833Z,2.60
2019-04-26T19:50:13.513Z,2.37
2019-04-26T19:52:39.497Z,2.43
2019-04-26T19:54:42.577Z,2.30
2019-04-26T19:57:01.072Z,2.40
2019-04-26T19:59:02.907Z,2.30
2019-04-26T20:01:06.788Z,2.57
2019-04-26T20:03:13.425Z,2.80
2019-04-26T20:05:17.415Z,2.23
2019-04-26T20:07:24.245Z,3.57
2019-04-26T20:09:26.889Z,2.70
2019-04-26T20:11:31.642Z,2.27
2019-04-26T20:13:35.762Z,3.10
2019-04-26T20:15:39.475Z,3.13
2019-04-26T20:17:43.265Z,2.37
2019-04-26T20:19:47.697Z,2.73
2019-04-26T20:21:52.775Z,5.20
2019-04-26T20:23:56.521Z,2.50
2019-04-26T20:26:02.328Z,4.00
2019-04-26T20:28:05.762Z,2.30
2019-04-26T20:30:12.543Z,2.27
2019-04-26T20:32:24.010Z,2.13
2019-04-26T20:34:28.001Z,2.50
2019-04-26T20:36:37.189Z,2.63
2019-04-26T20:38:43.626Z,2.03
2019-04-26T20:40:43.402Z,2.27
2019-04-26T20:42:48.052Z,2.20
2019-04-26T20:44:53.708Z,2.33
2019-04-26T20:46:57.341Z,2.60
2019-04-26T20:49:01.369Z,1.83
2019-04-26T20:51:10.498Z,2.30
2019-04-26T20:53:12.137Z,2.30
2019-04-26T20:55:15.967Z,2.20
2019-04-26T20:57:19.546Z,2.03
2019-04-26T20:59:23.676Z,2.47
2019-04-26T21:01:27.543Z,2.17
2019-04-26T21:03:31.801Z,2.00
2019-04-26T21:05:45.735Z,2.10
2019-04-26T21:07:49.475Z,2.23
2019-04-26T21:09:47.583Z,2.63
2019-04-26T21:11:51.743Z,2.27
2019-04-26T21:13:55.564Z,1.90
2019-04-26T21:16:03.677Z,2.30
2019-04-26T21:18:04.652Z,2.03
2019-04-26T21:20:08.620Z,2.30
2019-04-26T21:22:12.333Z,2.20
2019-04-26T21:24:19.739Z,2.10
2019-04-26T21:26:35.817Z,2.50
2019-04-26T21:28:47.222Z,2.50
2019-04-26T21:30:58.598Z,2.80
2019-04-26T21:33:15.945Z,4.03
2019-04-26T21:35:26.633Z,3.20
2019-04-26T21:37:44.677Z,2.83
2019-04-26T21:39:53.297Z,3.07
2019-04-26T21:41:58.630Z,3.73
2019-04-26T21:44:03.112Z,2.80
2019-04-26T21:46:08.385Z,2.80
2019-04-26T21:48:13.834Z,2.83
2019-04-26T21:50:17.507Z,3.10
2019-04-26T21:52:21.382Z,2.47
2019-04-26T21:54:26.456Z,2.60
2019-04-26T21:56:31.541Z,2.70
2019-04-26T21:58:35.298Z,2.90
2019-04-26T22:00:41.014Z,2.90
2019-04-26T22:02:44.807Z,2.40
2019-04-26T22:04:50.095Z,2.80
2019-04-26T22:06:55.628Z,2.37
2019-04-26T22:09:02.862Z,2.80
2019-04-26T22:11:06.103Z,2.50
2019-04-26T22:13:11.620Z,2.47
2019-04-26T22:15:16.946Z,2.80
2019-04-26T22:17:24.872Z,3.30
2019-04-26T22:19:32.480Z,3.10
2019-04-26T22:21:39.945Z,2.80
2019-04-26T22:23:47.568Z,2.67
2019-04-26T22:25:52.283Z,2.43
2019-04-26T22:28:00.236Z,2.57
2019-04-26T22:30:04.441Z,2.53
2019-04-26T22:32:11.460Z,2.47
2019-04-26T22:34:13.636Z,2.13
2019-04-26T22:36:18.383Z,2.67
2019-04-26T22:38:26.603Z,2.23
2019-04-26T22:40:27.381Z,2.63
2019-04-26T22:42:39.725Z,2.70
2019-04-26T22:44:45.489Z,2.70
2019-04-26T22:46:53.886Z,2.97
2019-04-26T22:49:01.499Z,2.90
2019-04-26T22:51:04.744Z,2.90
2019-04-26T22:53:08.726Z,2.90
2019-04-26T22:55:17.652Z,2.83
2019-04-26T22:57:17.974Z,3.40
2019-04-26T22:59:22.930Z,3.20
2019-04-26T23:01:26.794Z,3.40
2019-04-26T23:03:36.633Z,3.13
2019-04-26T23:05:39.221Z,2.90
2019-04-26T23:07:43.059Z,2.80
2019-04-26T23:09:51.792Z,3.40
2019-04-26T23:11:56.291Z,2.80
2019-04-26T23:14:04.353Z,3.20
2019-04-26T23:16:25.767Z,2.43
2019-04-26T23:18:46.091Z,2.50
2019-04-26T23:20:55.643Z,2.93
2019-04-26T23:23:00.577Z,2.60
2019-04-26T23:25:04.620Z,2.70
2019-04-26T23:27:08.316Z,2.70
2019-04-26T23:29:17.527Z,2.57
2019-04-26T23:31:17.168Z,2.60
2019-04-26T23:33:20.899Z,2.70
2019-04-26T23:35:24.504Z,3.50
2019-04-26T23:37:28.212Z,3.80
2019-04-26T23:39:32.806Z,3.27
2019-04-26T23:41:37.533Z,3.33
2019-04-26T23:43:41.826Z,3.40
2019-04-26T23:45:48.162Z,3.60
2019-04-26T23:47:50.724Z,3.07
2019-04-26T23:49:56.994Z,4.60
2019-04-26T23:51:59.669Z,3.90
2019-04-26T23:54:03.392Z,3.17
2019-04-26T23:56:07.065Z,2.80
2019-04-26T23:58:11.824Z,2.30
